createdAt,value
2019-04-23T07:38:16.319Z,1006.32
2019-04-23T07:40:09.878Z,1006.32
2019-04-23T07:40:54.393Z,1006.28
2019-04-23T07:42:03.535Z,1006.22
2019-04-23T07:42:59.154Z,1006.35
2019-04-23T07:44:02.700Z,1006.30
2019-04-23T07:44:56.862Z,1006.24
2019-04-23T07:46:02.326Z,1006.32
2019-04-23T07:47:05.351Z,1006.26
2019-04-23T07:48:01.580Z,1006.33
2019-04-23T07:48:47.961Z,1006.20
2019-04-23T07:50:19.242Z,1006.24
2019-04-23T07:51:06.204Z,1006.14
2019-04-23T07:51:57.231Z,1006.22
2019-04-23T07:53:01.813Z,1006.14
2019-04-23T07:54:01.259Z,1006.31
2019-04-23T07:55:02.415Z,1006.15
2019-04-23T07:55:58.618Z,1006.20
2019-04-23T07:57:02.238Z,1006.04
2019-04-23T07:58:01.950Z,1006.11
2019-04-23T07:58:56.810Z,1006.16
2019-04-23T07:59:59.206Z,1006.08
2019-04-23T08:01:04.936Z,1006.12
2019-04-23T08:01:58.162Z,1006.01
2019-04-23T08:03:00.497Z,1006.01
2019-04-23T08:05:04.833Z,1006.01
2019-04-23T08:05:50.918Z,1005.97
2019-04-23T08:06:53.046Z,1005.96
2019-04-23T08:07:57.142Z,1006.05
2019-04-23T08:08:50.878Z,1005.99
2019-04-23T08:09:53.247Z,1005.98
2019-04-23T08:11:16.325Z,1005.94
2019-04-23T08:11:59.433Z,1005.86
2019-04-23T08:12:53.944Z,1005.92
2019-04-23T08:13:58.653Z,1006.13
2019-04-23T08:14:55.370Z,1005.83
2019-04-23T08:16:46.570Z,1005.97
2019-04-23T08:17:50.498Z,1005.92
2019-04-23T08:19:56.057Z,1005.80
2019-04-23T08:20:55.746Z,1005.72
2019-04-23T08:21:58.172Z,1005.81
2019-04-23T08:22:53.754Z,1005.81
2019-04-23T08:23:56.936Z,1006.05
2019-04-23T08:25:03.292Z,1005.66
2019-04-23T08:26:09.527Z,1005.65
2019-04-23T08:26:55.330Z,1005.82
2019-04-23T08:27:51.086Z,1005.77
2019-04-23T08:28:58.449Z,1005.88
2019-04-23T08:29:47.821Z,1005.82
2019-04-23T08:30:56.781Z,1005.69
2019-04-23T08:31:51.962Z,1005.73
2019-04-23T08:32:52.353Z,1005.72
2019-04-23T08:33:57.780Z,1005.75
2019-04-23T08:34:58.646Z,1005.59
2019-04-23T08:35:50.992Z,1005.54
2019-04-23T08:36:48.328Z,1005.72
2019-04-23T08:38:04.602Z,1005.62
2019-04-23T08:39:05.349Z,1005.62
2019-04-23T08:39:46.995Z,1005.51
2019-04-23T08:40:58.891Z,1005.55
2019-04-23T08:43:12.883Z,1005.54
2019-04-23T08:44:10.661Z,1005.56
2019-04-23T08:44:56.993Z,1005.51
2019-04-23T08:45:46.279Z,1005.67
2019-04-23T08:46:56.896Z,1005.54
2019-04-23T08:47:56.534Z,1005.59
2019-04-23T08:48:49.714Z,1005.44
2019-04-23T08:49:47.033Z,1005.39
2019-04-23T08:50:46.551Z,1005.48
2019-04-23T08:51:57.049Z,1005.37
2019-04-23T08:53:00.176Z,1005.43
2019-04-23T08:53:48.095Z,1005.40
2019-04-23T08:55:01.541Z,1005.31
2019-04-23T08:55:49.239Z,1005.44
2019-04-23T08:56:48.703Z,1005.46
2019-04-23T08:57:43.997Z,1005.61
2019-04-23T08:58:46.249Z,1005.62
2019-04-23T09:01:58.041Z,1005.45
2019-04-23T09:02:55.025Z,1005.53
2019-04-23T09:03:39.459Z,1005.54
2019-04-23T09:06:45.317Z,1005.58
2019-04-23T09:07:57.135Z,1005.39
2019-04-23T09:08:44.316Z,1005.45
2019-04-23T09:09:52.066Z,1005.52
2019-04-23T09:10:50.269Z,1005.41
2019-04-23T09:13:54.709Z,1005.42
2019-04-23T09:14:45.046Z,1005.44
2019-04-23T09:17:47.845Z,1005.26
2019-04-23T09:18:45.888Z,1005.28
2019-04-23T09:20:39.272Z,1005.43
2019-04-23T09:22:09.422Z,1005.21
2019-04-23T09:22:48.797Z,1005.19
2019-04-23T09:23:46.666Z,1005.09
2019-04-23T09:24:50.670Z,1005.12
2019-04-23T09:25:49.846Z,1005.06
2019-04-23T09:26:41.444Z,1005.04
2019-04-23T09:27:44.807Z,1005.17
2019-04-23T09:29:58.680Z,1005.17
2019-04-23T09:30:49.290Z,1005.12
2019-04-23T09:32:07.761Z,1005.23
2019-04-23T09:33:00.836Z,1005.20
2019-04-23T09:33:54.817Z,1005.10
2019-04-23T09:34:52.367Z,1005.03
2019-04-23T09:35:48.400Z,1005.13
2019-04-23T09:37:49.186Z,1005.09
2019-04-23T09:38:46.757Z,1005.03
2019-04-23T09:39:49.515Z,1005.11
2019-04-23T09:40:54.894Z,1005.07
2019-04-23T09:41:39.563Z,1005.12
2019-04-23T09:42:47.540Z,1005.13
2019-04-23T09:44:02.815Z,1005.05
2019-04-23T09:44:55.906Z,1005.04
2019-04-23T09:46:49.601Z,1004.99
2019-04-23T09:47:47.416Z,1004.97
2019-04-23T09:48:54.701Z,1004.94
2019-04-23T09:49:39.771Z,1004.97
2019-04-23T09:50:43.361Z,1004.86
2019-04-23T09:51:46.822Z,1004.89
2019-04-23T09:52:48.448Z,1004.83
2019-04-23T09:53:46.546Z,1004.80
2019-04-23T09:54:47.722Z,1004.74
2019-04-23T09:55:43.409Z,1004.80
2019-04-23T09:56:44.624Z,1004.75
2019-04-23T09:57:43.444Z,1004.77
2019-04-23T09:58:48.511Z,1004.93
2019-04-23T09:59:43.088Z,1004.69
2019-04-23T10:00:40.691Z,1004.81
2019-04-23T10:01:49.776Z,1004.87
2019-04-23T10:02:29.097Z,1004.78
2019-04-23T10:03:25.719Z,1004.69
2019-04-23T10:04:28.185Z,1004.70
2019-04-23T10:05:28.741Z,1004.68
2019-04-23T10:06:20.863Z,1004.74
2019-04-23T10:07:26.996Z,1004.65
2019-04-23T10:08:21.156Z,1004.77
2019-04-23T10:09:14.601Z,1004.67
2019-04-23T10:10:14.404Z,1004.81
2019-04-23T10:11:13.820Z,1004.60
2019-04-23T10:12:14.654Z,1004.65
2019-04-23T10:13:13.717Z,1004.55
2019-04-23T10:14:14.496Z,1004.73
2019-04-23T10:15:21.693Z,1004.62
2019-04-23T10:16:15.743Z,1004.58
2019-04-23T10:17:13.961Z,1004.60
2019-04-23T10:18:14.018Z,1004.69
2019-04-23T10:19:12.840Z,1004.51
2019-04-23T10:20:12.888Z,1004.38
2019-04-23T10:21:13.125Z,1004.38
2019-04-23T10:22:13.321Z,1004.34
2019-04-23T10:23:12.572Z,1004.39
2019-04-23T10:24:12.964Z,1004.45
2019-04-23T10:25:12.961Z,1004.47
2019-04-23T10:26:12.337Z,1004.21
2019-04-23T10:27:12.122Z,1004.34
2019-04-23T10:28:13.245Z,1004.34
2019-04-23T10:29:11.942Z,1004.55
2019-04-23T10:30:12.351Z,1004.55
2019-04-23T10:31:12.696Z,1004.57
2019-04-23T10:32:11.762Z,1004.40
2019-04-23T10:33:11.677Z,1004.27
2019-04-23T10:34:12.261Z,1004.26
2019-04-23T10:35:22.409Z,1004.42
2019-04-23T10:36:15.420Z,1004.27
2019-04-23T10:37:11.455Z,1004.41
2019-04-23T10:38:14.781Z,1004.41
2019-04-23T10:39:17.585Z,1004.42
2019-04-23T10:40:16.955Z,1004.30
2019-04-23T10:41:12.047Z,1004.21
2019-04-23T10:42:11.922Z,1004.29
2019-04-23T10:43:11.166Z,1004.24
2019-04-23T10:44:11.003Z,1004.16
2019-04-23T10:45:24.032Z,1004.16
2019-04-23T10:46:32.978Z,1004.07
2019-04-23T10:47:42.520Z,1004.05
2019-04-23T10:49:47.745Z,1004.03
2019-04-23T10:50:46.463Z,1004.14
2019-04-23T10:51:52.134Z,1004.20
2019-04-23T10:53:40.940Z,1004.11
2019-04-23T10:54:43.346Z,1003.99
2019-04-23T10:55:46.792Z,1003.90
2019-04-23T10:56:40.773Z,1003.90
2019-04-23T10:57:31.473Z,1003.85
2019-04-23T10:58:36.553Z,1003.88
2019-04-23T11:00:36.066Z,1003.79
2019-04-23T11:01:45.067Z,1004.04
2019-04-23T11:02:47.349Z,1003.90
2019-04-23T11:04:53.404Z,1003.83
2019-04-23T11:06:41.079Z,1003.93
2019-04-23T11:08:38.630Z,1003.97
2019-04-23T11:10:42.961Z,1003.72
2019-04-23T11:11:36.141Z,1003.74
2019-04-23T11:13:43.398Z,1003.72
2019-04-23T11:14:42.212Z,1003.80
2019-04-23T11:15:49.332Z,1003.79
2019-04-23T11:18:46.866Z,1003.75
2019-04-23T11:19:39.936Z,1003.71
2019-04-23T11:20:33.786Z,1003.61
2019-04-23T11:21:34.121Z,1003.73
2019-04-23T11:23:39.225Z,1003.64
2019-04-23T11:26:39.594Z,1003.59
2019-04-23T11:27:35.769Z,1003.54
2019-04-23T11:28:34.777Z,1003.65
2019-04-23T11:29:38.644Z,1003.64
2019-04-23T11:31:41.584Z,1003.59
2019-04-23T11:32:46.947Z,1003.71
2019-04-23T11:33:40.371Z,1003.66
2019-04-23T11:34:57.048Z,1003.53
2019-04-23T11:35:47.731Z,1003.76
2019-04-23T11:37:47.918Z,1003.58
2019-04-23T11:39:37.464Z,1003.53
2019-04-23T11:42:41.310Z,1003.70
2019-04-23T11:43:32.404Z,1003.60
2019-04-23T11:44:45.828Z,1003.38
2019-04-23T11:45:44.110Z,1003.46
2019-04-23T11:48:04.858Z,1003.46
2019-04-23T11:48:46.395Z,1003.42
2019-04-23T11:49:53.390Z,1003.69
2019-04-23T11:51:20.797Z,1003.29
2019-04-23T11:51:45.956Z,1003.40
2019-04-23T11:53:42.484Z,1003.19
2019-04-23T11:54:30.731Z,1003.12
2019-04-23T11:56:53.686Z,1003.34
2019-04-23T11:58:39.257Z,1003.22
2019-04-23T11:59:53.122Z,1003.49
2019-04-23T12:00:44.985Z,1003.34
2019-04-23T12:01:44.746Z,1003.31
2019-04-23T12:02:40.302Z,1003.35
2019-04-23T12:03:40.868Z,1003.45
2019-04-23T12:04:37.237Z,1003.29
2019-04-23T12:05:41.652Z,1003.25
2019-04-23T12:06:49.276Z,1003.40
2019-04-23T12:07:36.237Z,1003.22
2019-04-23T12:08:43.089Z,1003.25
2019-04-23T12:10:43.033Z,1003.27
2019-04-23T12:12:39.976Z,1003.31
2019-04-23T12:13:35.537Z,1003.26
2019-04-23T12:14:35.303Z,1003.28
2019-04-23T12:15:32.763Z,1003.22
2019-04-23T12:16:42.980Z,1003.29
2019-04-23T12:17:31.687Z,1003.35
2019-04-23T12:18:58.169Z,1003.27
2019-04-23T12:19:52.970Z,1003.32
2019-04-23T12:20:33.136Z,1003.28
2019-04-23T12:21:37.428Z,1003.28
2019-04-23T12:22:30.123Z,1003.22
2019-04-23T12:23:40.523Z,1003.41
2019-04-23T12:25:04.333Z,1003.30
2019-04-23T12:26:40.751Z,1003.37
2019-04-23T12:27:30.690Z,1003.54
2019-04-23T12:28:33.726Z,1003.41
2019-04-23T12:29:33.225Z,1003.33
2019-04-23T12:30:33.923Z,1003.36
2019-04-23T12:31:31.233Z,1003.37
2019-04-23T12:33:41.137Z,1003.33
2019-04-23T12:34:35.832Z,1003.35
2019-04-23T12:35:22.498Z,1003.13
2019-04-23T12:36:43.740Z,1003.27
2019-04-23T12:37:41.000Z,1003.21
2019-04-23T12:38:47.932Z,1003.23
2019-04-23T12:39:39.091Z,1003.46
2019-04-23T12:40:27.078Z,1003.33
2019-04-23T12:41:29.838Z,1003.27
2019-04-23T12:42:50.431Z,1003.17
2019-04-23T12:43:40.053Z,1003.39
2019-04-23T12:44:34.974Z,1003.07
2019-04-23T12:45:35.664Z,1003.29
2019-04-23T12:46:30.059Z,1003.21
2019-04-23T12:47:49.226Z,1003.32
2019-04-23T12:49:50.856Z,1003.26
2019-04-23T12:50:44.901Z,1003.33
2019-04-23T12:51:38.440Z,1003.34
2019-04-23T12:53:30.547Z,1003.23
2019-04-23T12:54:41.122Z,1003.28
2019-04-23T12:55:42.184Z,1003.26
2019-04-23T12:56:31.014Z,1003.18
2019-04-23T12:57:28.750Z,1003.25
2019-04-23T12:58:38.360Z,1003.14
2019-04-23T12:59:26.948Z,1003.15
2019-04-23T13:00:25.709Z,1003.16
2019-04-23T13:01:35.727Z,1003.62
2019-04-23T13:02:33.078Z,1003.35
2019-04-23T13:04:24.654Z,1003.23
2019-04-23T13:06:20.446Z,1003.09
2019-04-23T13:07:36.988Z,1003.33
2019-04-23T13:08:33.610Z,1003.18
2019-04-23T13:10:30.187Z,1003.16
2019-04-23T13:11:30.096Z,1003.16
2019-04-23T13:12:37.734Z,1003.18
2019-04-23T13:14:35.060Z,1003.18
2019-04-23T13:15:23.035Z,1003.05
2019-04-23T13:16:39.922Z,1003.11
2019-04-23T13:17:44.449Z,1003.04
2019-04-23T13:18:29.921Z,1002.93
2019-04-23T13:19:32.864Z,1002.95
2019-04-23T13:20:23.623Z,1002.85
2019-04-23T13:21:46.682Z,1002.99
2019-04-23T13:22:30.792Z,1002.85
2019-04-23T13:23:26.293Z,1002.88
2019-04-23T13:24:25.962Z,1003.00
2019-04-23T13:25:28.324Z,1002.95
2019-04-23T13:26:13.497Z,1002.90
2019-04-23T13:27:30.738Z,1002.95
2019-04-23T13:28:21.686Z,1002.98
2019-04-23T13:29:27.263Z,1002.98
2019-04-23T13:30:34.440Z,1002.89
2019-04-23T13:31:14.958Z,1003.04
2019-04-23T13:34:22.984Z,1002.41
2019-04-23T13:35:38.070Z,1002.81
2019-04-23T13:36:29.665Z,1002.76
2019-04-23T13:37:33.652Z,1002.80
2019-04-23T13:38:25.120Z,1002.69
2019-04-23T13:39:29.095Z,1003.14
2019-04-23T13:40:23.539Z,1002.69
2019-04-23T13:41:21.090Z,1002.72
2019-04-23T13:42:31.882Z,1002.73
2019-04-23T13:43:31.798Z,1002.60
2019-04-23T13:44:26.088Z,1003.01
2019-04-23T13:45:51.211Z,1002.66
2019-04-23T13:46:16.180Z,1002.73
2019-04-23T13:47:29.902Z,1002.68
2019-04-23T13:48:15.167Z,1002.64
2019-04-23T13:49:27.729Z,1002.76
2019-04-23T13:50:32.784Z,1002.71
2019-04-23T13:51:27.341Z,1002.08
2019-04-23T13:52:50.511Z,1002.80
2019-04-23T13:53:39.343Z,1002.62
2019-04-23T13:54:43.705Z,1002.69
2019-04-23T13:55:14.480Z,1002.59
2019-04-23T13:56:24.255Z,1002.60
2019-04-23T13:57:57.358Z,1002.57
2019-04-23T13:58:36.343Z,1002.47
2019-04-23T13:59:26.504Z,1002.57
2019-04-23T14:00:24.978Z,1002.61
2019-04-23T14:01:26.298Z,1002.64
2019-04-23T14:02:31.283Z,1002.77
2019-04-23T14:03:26.449Z,1003.09
2019-04-23T14:04:32.856Z,1002.75
2019-04-23T14:05:21.703Z,1002.81
2019-04-23T14:07:25.183Z,1002.82
2019-04-23T14:09:32.924Z,1002.78
2019-04-23T14:11:23.707Z,1002.73
2019-04-23T14:12:22.256Z,1002.71
2019-04-23T14:13:38.608Z,1002.84
2019-04-23T14:14:25.240Z,1002.73
2019-04-23T14:15:31.119Z,1002.74
2019-04-23T14:19:16.532Z,1002.73
2019-04-23T14:22:43.487Z,1002.82
2019-04-23T14:23:27.312Z,1002.93
2019-04-23T14:26:25.982Z,1002.76
2019-04-23T14:27:19.706Z,1002.73
2019-04-23T14:28:21.626Z,1002.67
2019-04-23T14:29:22.947Z,1002.70
2019-04-23T14:30:21.808Z,1002.77
2019-04-23T14:32:28.591Z,1002.67
2019-04-23T14:35:25.482Z,1002.80
2019-04-23T17:10:08.217Z,1001.90
2019-04-23T17:12:05.904Z,1001.77
2019-04-23T17:13:04.943Z,1001.80
2019-04-23T17:15:05.015Z,1001.85
2019-04-23T17:16:12.128Z,1001.70
2019-04-23T17:16:53.424Z,1001.84
2019-04-23T17:18:01.753Z,1001.82
2019-04-23T17:19:07.515Z,1001.73
2019-04-23T17:20:22.031Z,1001.66
2019-04-23T17:20:58.361Z,1001.78
2019-04-23T17:22:09.850Z,1001.69
2019-04-23T17:23:10.152Z,1001.79
2019-04-23T17:24:11.447Z,1001.71
2019-04-23T17:25:07.458Z,1001.69
2019-04-23T17:26:04.565Z,1001.72
2019-04-23T17:28:17.325Z,1001.65
2019-04-23T17:29:58.837Z,1001.58
2019-04-23T17:31:21.299Z,1001.72
2019-04-23T17:31:49.027Z,1001.71
2019-04-23T17:33:09.856Z,1001.58
2019-04-23T17:35:08.448Z,1001.64
2019-04-23T17:36:13.220Z,1001.70
2019-04-23T17:37:00.375Z,1001.59
2019-04-23T17:38:08.566Z,1001.59
2019-04-23T17:39:07.075Z,1001.66
2019-04-23T17:40:08.660Z,1001.67
2019-04-23T17:41:05.765Z,1001.60
2019-04-23T17:42:05.424Z,1001.58
2019-04-23T17:42:55.439Z,1001.58
2019-04-23T17:44:10.709Z,1001.73
2019-04-23T17:45:56.707Z,1001.63
2019-04-23T17:47:04.570Z,1001.54
2019-04-23T17:47:59.347Z,1001.66
2019-04-23T17:48:55.313Z,1001.58
2019-04-23T17:51:08.148Z,1001.59
2019-04-23T17:51:59.204Z,1001.60
2019-04-23T17:53:03.230Z,1001.64
2019-04-23T17:54:04.746Z,1001.60
2019-04-23T17:55:08.594Z,1001.60
2019-04-23T17:56:08.488Z,1001.44
2019-04-23T17:58:01.528Z,1001.53
2019-04-23T17:59:00.770Z,1001.57
2019-04-23T18:00:11.450Z,1001.58
2019-04-23T18:02:21.433Z,1001.47
2019-04-23T18:03:01.237Z,1001.55
2019-04-23T18:04:02.827Z,1001.54
2019-04-23T18:05:02.451Z,1001.51
2019-04-23T18:06:19.811Z,1001.50
2019-04-23T18:06:56.056Z,1001.55
2019-04-23T18:09:00.837Z,1001.52
2019-04-23T18:10:15.021Z,1001.54
2019-04-23T18:11:05.660Z,1001.50
2019-04-23T18:12:05.324Z,1001.54
2019-04-23T18:13:56.719Z,1001.55
2019-04-23T18:14:52.222Z,1001.53
2019-04-23T18:16:04.499Z,1001.47
2019-04-23T18:16:59.332Z,1001.52
2019-04-23T18:17:55.299Z,1001.52
2019-04-23T18:19:58.511Z,1001.42
2019-04-23T18:21:03.087Z,1001.38
2019-04-23T18:24:04.912Z,1001.46
2019-04-23T18:24:57.813Z,1001.41
2019-04-23T18:25:51.579Z,1001.44
2019-04-23T18:27:00.983Z,1001.39
2019-04-23T18:28:58.765Z,1001.44
2019-04-23T18:29:59.612Z,1001.42
2019-04-23T18:30:56.670Z,1001.45
2019-04-23T18:32:01.116Z,1001.38
2019-04-23T18:35:46.954Z,1001.44
2019-04-23T18:36:59.669Z,1001.39
2019-04-23T18:37:49.248Z,1001.47
2019-04-23T18:38:52.668Z,1001.42
2019-04-23T18:39:58.112Z,1001.40
2019-04-23T18:41:05.394Z,1001.46
2019-04-23T18:42:03.864Z,1001.46
2019-04-23T18:43:03.192Z,1001.52
2019-04-23T18:43:50.696Z,1001.43
2019-04-23T18:45:53.581Z,1001.45
2019-04-23T18:46:48.983Z,1001.41
2019-04-23T18:48:57.906Z,1001.47
2019-04-23T18:50:55.374Z,1001.48
2019-04-23T18:51:52.082Z,1001.48
2019-04-23T18:53:00.699Z,1001.61
2019-04-23T18:53:48.529Z,1001.51
2019-04-23T18:54:48.818Z,1001.55
2019-04-23T18:56:06.687Z,1001.56
2019-04-23T18:57:02.001Z,1001.49
2019-04-23T18:57:52.736Z,1001.55
2019-04-23T18:59:52.002Z,1001.54
2019-04-23T19:01:00.056Z,1001.54
2019-04-23T19:01:50.127Z,1001.53
2019-04-23T19:02:56.599Z,1001.52
2019-04-23T19:04:17.252Z,1001.60
2019-04-23T19:06:01.056Z,1001.52
2019-04-23T19:06:38.184Z,1001.51
2019-04-23T19:08:01.028Z,1001.65
2019-04-23T19:10:13.674Z,1001.66
2019-04-23T19:11:07.168Z,1001.61
2019-04-23T19:11:58.266Z,1001.67
2019-04-23T19:13:07.207Z,1001.66
2019-04-23T19:13:55.716Z,1001.66
2019-04-23T19:15:40.640Z,1001.66
2019-04-23T19:17:56.487Z,1001.65
2019-04-23T19:18:49.714Z,1001.59
2019-04-23T19:20:00.615Z,1001.73
2019-04-23T19:21:00.892Z,1001.69
2019-04-23T19:22:55.158Z,1001.63
2019-04-23T19:23:50.807Z,1001.65
2019-04-23T19:25:46.720Z,1001.68
2019-04-23T19:27:45.956Z,1001.63
2019-04-23T19:29:07.012Z,1001.66
2019-04-23T19:29:52.010Z,1001.68
2019-04-23T19:30:57.215Z,1001.58
2019-04-23T19:31:56.754Z,1001.65
2019-04-23T19:32:48.913Z,1001.68
2019-04-23T19:33:54.862Z,1001.63
2019-04-23T19:34:45.408Z,1001.71
2019-04-23T19:38:43.425Z,1001.68
2019-04-23T19:39:46.890Z,1001.70
2019-04-23T19:40:53.500Z,1001.77
2019-04-23T19:41:55.874Z,1001.75
2019-04-23T19:42:50.884Z,1001.70
2019-04-23T19:43:49.491Z,1001.68
2019-04-23T19:44:47.573Z,1001.65
2019-04-23T19:45:55.702Z,1001.70
2019-04-23T19:46:54.807Z,1001.74
2019-04-23T19:47:55.965Z,1001.61
2019-04-23T19:49:03.256Z,1001.64
2019-04-23T19:49:41.853Z,1001.69
2019-04-23T19:51:00.280Z,1001.69
2019-04-23T19:51:49.422Z,1001.67
2019-04-23T19:54:09.458Z,1001.73
2019-04-23T19:54:52.556Z,1001.87
2019-04-23T19:55:58.708Z,1001.63
2019-04-23T19:56:51.833Z,1001.61
2019-04-23T19:57:49.268Z,1001.77
2019-04-23T19:59:55.327Z,1001.69
2019-04-23T20:01:04.917Z,1001.70
2019-04-23T20:01:46.910Z,1001.75
2019-04-23T20:03:03.610Z,1001.53
2019-04-23T20:03:49.805Z,1001.66
2019-04-23T20:05:02.389Z,1001.56
2019-04-23T20:05:47.084Z,1001.58
2019-04-23T20:07:05.050Z,1001.72
2019-04-23T20:08:04.480Z,1001.68
2019-04-23T20:09:12.509Z,1001.67
2019-04-23T20:09:48.623Z,1001.68
2019-04-23T20:10:47.773Z,1001.85
2019-04-23T20:11:53.008Z,1001.53
2019-04-23T20:12:40.423Z,1001.87
2019-04-23T20:13:57.574Z,1001.61
2019-04-23T20:15:57.919Z,1001.63
2019-04-23T20:17:21.456Z,1001.64
2019-04-23T20:17:47.622Z,1001.66
2019-04-23T20:18:50.863Z,1001.73
2019-04-23T20:19:44.011Z,1001.55
2019-04-23T20:21:47.380Z,1001.50
2019-04-23T20:22:48.643Z,1001.61
2019-04-23T20:24:57.678Z,1001.62
2019-04-23T20:26:12.520Z,1001.63
2019-04-23T20:26:41.333Z,1001.60
2019-04-23T20:30:02.482Z,1001.66
2019-04-23T20:30:54.435Z,1001.65
2019-04-23T20:32:53.687Z,1001.61
2019-04-23T20:33:55.449Z,1001.64
2019-04-23T20:34:59.071Z,1001.65
2019-04-23T20:35:38.420Z,1001.56
2019-04-23T20:38:08.983Z,1001.57
2019-04-23T20:39:49.166Z,1001.64
2019-04-23T20:41:59.421Z,1001.69
2019-04-23T20:42:41.349Z,1001.75
2019-04-23T20:43:54.651Z,1001.67
2019-04-23T20:44:50.501Z,1001.58
2019-04-23T20:45:46.579Z,1001.71
2019-04-23T20:46:43.102Z,1001.70
2019-04-23T20:48:48.215Z,1001.68
2019-04-23T20:50:39.250Z,1001.71
2019-04-23T20:51:41.313Z,1001.69
2019-04-23T20:52:37.595Z,1001.61
2019-04-23T20:53:50.575Z,1001.72
2019-04-23T20:55:52.751Z,1001.74
2019-04-23T20:56:42.626Z,1001.71
2019-04-23T20:57:43.869Z,1001.73
2019-04-23T20:58:39.470Z,1001.76
2019-04-23T20:59:40.850Z,1001.70
2019-04-23T21:00:50.254Z,1001.57
2019-04-23T21:01:46.566Z,1001.69
2019-04-23T21:04:53.180Z,1001.62
2019-04-23T21:05:29.585Z,1001.64
2019-04-23T21:06:47.096Z,1001.59
2019-04-23T21:07:54.281Z,1001.62
2019-04-23T21:09:52.958Z,1001.64
2019-04-23T21:10:37.300Z,1001.64
2019-04-23T21:11:52.670Z,1001.62
2019-04-23T21:12:58.126Z,1001.66
2019-04-23T21:14:57.815Z,1001.71
2019-04-23T21:18:44.345Z,1001.66
2019-04-23T21:19:50.503Z,1001.62
2019-04-23T21:20:38.044Z,1001.67
2019-04-23T21:21:45.828Z,1001.54
2019-04-23T21:22:38.168Z,1001.63
2019-04-23T21:23:41.897Z,1001.64
2019-04-23T21:24:42.944Z,1001.61
2019-04-23T21:25:40.899Z,1001.56
2019-04-23T21:26:41.868Z,1001.59
2019-04-23T21:27:46.486Z,1001.61
2019-04-23T21:28:40.138Z,1001.55
2019-04-23T21:29:50.139Z,1001.66
2019-04-23T21:30:53.684Z,1001.64
2019-04-23T21:31:53.776Z,1001.72
2019-04-23T21:32:42.191Z,1001.61
2019-04-23T21:34:35.352Z,1001.60
2019-04-23T21:35:51.983Z,1001.69
2019-04-23T21:36:40.349Z,1001.61
2019-04-23T21:37:42.773Z,1001.61
2019-04-23T21:38:56.656Z,1001.66
2019-04-23T21:39:40.731Z,1001.67
2019-04-23T21:41:46.202Z,1001.65
2019-04-23T21:42:41.093Z,1001.66
2019-04-23T21:43:51.563Z,1001.69
2019-04-23T21:44:35.596Z,1001.67
2019-04-23T21:45:48.770Z,1001.70
2019-04-23T21:46:36.522Z,1001.78
2019-04-23T21:47:46.000Z,1001.73
2019-04-23T21:48:55.854Z,1001.70
2019-04-23T21:49:48.178Z,1001.70
2019-04-23T21:50:44.473Z,1001.82
2019-04-23T21:52:34.583Z,1001.79
2019-04-23T21:53:36.240Z,1001.79
2019-04-23T21:54:41.221Z,1001.80
2019-04-23T21:55:43.621Z,1001.82
2019-04-23T21:57:44.335Z,1001.93
2019-04-23T21:58:47.113Z,1001.83
2019-04-23T21:59:34.430Z,1001.85
2019-04-23T22:00:44.447Z,1001.84
2019-04-23T22:01:37.042Z,1001.83
2019-04-23T22:02:36.798Z,1001.82
2019-04-23T22:03:43.232Z,1001.85
2019-04-23T22:05:49.687Z,1001.81
2019-04-23T22:06:40.842Z,1001.83
2019-04-23T22:07:25.543Z,1001.82
2019-04-23T22:08:35.117Z,1001.74
2019-04-23T22:09:34.759Z,1001.77
2019-04-23T22:10:32.023Z,1001.85
2019-04-23T22:12:41.910Z,1001.83
2019-04-23T22:13:41.624Z,1001.85
2019-04-23T22:14:33.741Z,1001.76
2019-04-23T22:15:47.778Z,1001.67
2019-04-23T22:16:46.709Z,1001.79
2019-04-23T22:17:36.317Z,1001.78
2019-04-23T22:18:34.562Z,1001.59
2019-04-23T22:20:34.803Z,1001.82
2019-04-23T22:21:44.427Z,1001.69
2019-04-23T22:22:45.440Z,1001.66
2019-04-23T22:23:48.971Z,1001.85
2019-04-23T22:24:25.349Z,1001.78
2019-04-23T22:25:44.277Z,1001.82
2019-04-23T22:27:27.624Z,1001.84
2019-04-23T22:28:39.708Z,1001.78
2019-04-23T22:29:35.982Z,1001.83
2019-04-23T22:30:38.331Z,1001.86
2019-04-23T22:31:38.998Z,1001.77
2019-04-23T22:32:40.211Z,1001.78
2019-04-23T22:33:44.515Z,1001.86
2019-04-23T22:34:33.943Z,1001.80
2019-04-23T22:35:30.462Z,1001.72
2019-04-23T22:36:29.369Z,1001.83
2019-04-23T22:37:35.415Z,1001.81
2019-04-23T22:38:37.766Z,1001.77
2019-04-23T22:39:31.990Z,1001.83
2019-04-23T22:40:25.692Z,1001.88
2019-04-23T22:41:38.049Z,1001.80
2019-04-23T22:42:54.213Z,1001.85
2019-04-23T22:43:31.103Z,1001.88
2019-04-23T22:44:31.082Z,1001.88
2019-04-23T22:45:37.749Z,1001.94
2019-04-23T22:46:36.979Z,1001.90
2019-04-23T22:47:33.698Z,1001.85
2019-04-23T22:48:34.592Z,1001.85
2019-04-23T22:49:41.839Z,1001.93
2019-04-23T22:50:27.842Z,1001.84
2019-04-23T22:52:36.863Z,1001.78
2019-04-23T22:53:28.053Z,1001.90
2019-04-23T22:54:22.965Z,1001.84
2019-04-23T22:55:32.922Z,1001.83
2019-04-23T22:56:25.233Z,1001.83
2019-04-23T22:57:42.727Z,1001.80
2019-04-23T22:58:32.425Z,1001.83
2019-04-23T22:59:37.750Z,1001.79
2019-04-23T23:00:47.000Z,1001.86
2019-04-23T23:01:48.904Z,1001.74
2019-04-23T23:02:41.289Z,1001.80
2019-04-23T23:03:29.381Z,1001.80
2019-04-23T23:04:31.020Z,1001.80
2019-04-23T23:05:35.675Z,1001.70
2019-04-23T23:06:33.202Z,1001.72
2019-04-23T23:07:28.482Z,1001.67
2019-04-23T23:08:55.479Z,1001.71
2019-04-23T23:09:40.640Z,1001.66
2019-04-23T23:10:28.372Z,1001.60
2019-04-23T23:11:28.727Z,1001.73
2019-04-23T23:12:36.558Z,1001.67
2019-04-23T23:13:48.687Z,1001.75
2019-04-23T23:14:46.000Z,1001.71
2019-04-23T23:16:44.583Z,1001.71
2019-04-23T23:17:30.697Z,1001.69
2019-04-23T23:19:28.443Z,1001.75
2019-04-23T23:21:30.819Z,1001.74
2019-04-23T23:22:28.074Z,1001.71
2019-04-23T23:23:21.027Z,1001.69
2019-04-23T23:25:24.603Z,1001.68
2019-04-23T23:26:21.564Z,1001.68
2019-04-23T23:27:25.220Z,1001.67
2019-04-23T23:29:19.223Z,1001.60
2019-04-23T23:30:26.558Z,1001.72
2019-04-23T23:31:24.374Z,1001.61
2019-04-23T23:33:24.687Z,1001.61
2019-04-23T23:34:28.171Z,1001.63
2019-04-23T23:35:29.537Z,1001.55
2019-04-23T23:37:20.702Z,1001.64
2019-04-23T23:40:25.636Z,1001.64
2019-04-23T23:41:26.563Z,1001.67
2019-04-23T23:42:22.152Z,1001.62
2019-04-23T23:43:24.272Z,1001.55
2019-04-23T23:44:33.530Z,1001.60
2019-04-23T23:45:31.428Z,1001.58
2019-04-23T23:47:18.301Z,1001.43
2019-04-23T23:48:18.697Z,1001.57
2019-04-23T23:49:27.913Z,1001.50
2019-04-23T23:50:27.090Z,1001.56
2019-04-23T23:51:27.516Z,1001.52
2019-04-23T23:53:29.766Z,1001.52
2019-04-23T23:54:36.071Z,1001.49
2019-04-23T23:55:18.510Z,1001.44
2019-04-23T23:58:32.019Z,1001.47
2019-04-23T23:59:18.001Z,1001.53
